Time;durP1;ratioP1;P1;durP2;ratioP2;P2;SDS_P1;SDS_P2;PMS_P1;PMS_P2;Temp;Humidity;BMP_temperature;BMP_pressure;BME280_temperature;BME280_humidity;BME280_pressure;Samples;Min_cycle;Max_cycle;Signal;HPM_P1;HPM_P2
2022/07/27 00:00:33;;;;;;;8.47;2.00;;;14.40;52.40;;;;;;4987256;28;20458;-83
2022/07/27 00:03:00;;;;;;;7.43;1.70;;;14.40;53.10;;;;;;4996770;28;20481;-83
2022/07/27 00:05:28;;;;;;;10.20;2.23;;;14.40;53.70;;;;;;4988524;28;20462;-83
2022/07/27 00:07:55;;;;;;;14.23;2.77;;;14.30;53.60;;;;;;4977700;28;20443;-82
2022/07/27 00:10:22;;;;;;;10.20;2.43;;;14.40;54.30;;;;;;4978917;28;20451;-82
2022/07/27 00:12:49;;;;;;;8.80;2.13;;;14.40;54.60;;;;;;4977586;28;20486;-82
2022/07/27 00:15:16;;;;;;;10.27;2.50;;;14.50;54.60;;;;;;4977970;28;20457;-83
2022/07/27 00:17:43;;;;;;;6.23;2.27;;;14.50;54.70;;;;;;4979076;28;20569;-80
2022/07/27 00:20:11;;;;;;;8.60;2.33;;;14.80;55.00;;;;;;4996895;28;20556;-83
2022/07/27 00:22:39;;;;;;;5.90;1.83;;;14.40;54.80;;;;;;4995733;28;20470;-82
2022/07/27 00:25:06;;;;;;;8.47;2.33;;;14.50;53.10;;;;;;4977647;28;20481;-83
2022/07/27 00:27:33;;;;;;;5.80;1.97;;;14.70;52.10;;;;;;4977075;28;20451;-83
2022/07/27 00:30:00;;;;;;;5.90;1.90;;;14.70;51.30;;;;;;4997072;28;20800;-83
2022/07/27 00:32:26;;;;;;;7.03;1.80;;;14.90;50.40;;;;;;4996271;28;20481;-82
2022/07/27 00:34:53;;;;;;;5.73;2.03;;;14.70;49.70;;;;;;4978913;28;20458;-83
2022/07/27 00:37:20;;;;;;;6.50;1.90;;;14.70;49.60;;;;;;4977742;28;20489;-83
2022/07/27 00:39:48;;;;;;;6.80;2.40;;;14.80;49.40;;;;;;4978253;28;20853;-83
2022/07/27 00:42:15;;;;;;;6.13;1.67;;;14.70;50.00;;;;;;4977567;28;20479;-82
2022/07/27 00:44:41;;;;;;;6.13;2.10;;;14.70;50.20;;;;;;4991358;28;20450;-82
2022/07/27 00:47:08;;;;;;;10.30;1.87;;;14.60;50.20;;;;;;4996126;28;20466;-83
2022/07/27 00:49:35;;;;;;;4.47;1.80;;;14.70;49.80;;;;;;4984686;28;20455;-83
2022/07/27 00:52:02;;;;;;;4.90;1.50;;;14.80;48.40;;;;;;4981050;28;20471;-83
2022/07/27 00:54:29;;;;;;;4.60;1.50;;;14.70;48.50;;;;;;4991950;28;20454;-83
2022/07/27 00:56:57;;;;;;;5.40;2.00;;;14.90;48.50;;;;;;4999850;28;20450;-83
2022/07/27 00:59:25;;;;;;;5.90;1.50;;;14.70;48.30;;;;;;4999038;28;20549;-82
2022/07/27 01:01:52;;;;;;;8.63;1.67;;;14.70;48.30;;;;;;4999737;28;20979;-83
2022/07/27 01:04:18;;;;;;;6.60;1.90;;;14.80;48.40;;;;;;4989936;28;20451;-83
2022/07/27 01:06:45;;;;;;;4.57;1.20;;;14.80;48.40;;;;;;4980686;28;20467;-83
2022/07/27 01:11:58;;;;;;;7.00;1.47;;;14.80;48.40;;;;;;4980466;28;20463;-82
2022/07/27 01:14:25;;;;;;;5.47;1.60;;;14.70;48.30;;;;;;4995505;28;20457;-82
2022/07/27 01:16:52;;;;;;;4.47;1.87;;;14.80;48.40;;;;;;4999512;28;20454;-82
2022/07/27 01:19:19;;;;;;;6.03;1.50;;;14.80;48.60;;;;;;4988644;28;20999;-82
2022/07/27 01:21:47;;;;;;;4.43;1.27;;;14.80;48.90;;;;;;4997636;28;20833;-84
2022/07/27 01:24:14;;;;;;;8.30;1.90;;;14.80;48.40;;;;;;4999146;28;20461;-83
2022/07/27 01:26:41;;;;;;;5.13;1.73;;;14.80;48.40;;;;;;4999443;28;20465;-82
2022/07/27 01:29:08;;;;;;;5.33;1.57;;;14.70;48.30;;;;;;4999464;28;20450;-82
2022/07/27 01:31:35;;;;;;;7.97;2.10;;;14.80;48.40;;;;;;5000286;28;20458;-82
2022/07/27 01:34:03;;;;;;;5.40;1.87;;;14.80;48.40;;;;;;4989649;28;20451;-82
2022/07/27 01:36:30;;;;;;;4.93;1.60;;;14.70;48.30;;;;;;4979780;28;20451;-83
2022/07/27 01:38:58;;;;;;;5.60;1.60;;;14.70;48.70;;;;;;4987733;28;20478;-83
2022/07/27 01:41:24;;;;;;;8.90;1.67;;;14.50;49.40;;;;;;4999607;28;20458;-82
2022/07/27 01:43:51;;;;;;;4.80;1.63;;;14.40;51.20;;;;;;4992409;28;20478;-83
2022/07/27 01:46:18;;;;;;;6.57;1.50;;;14.30;52.90;;;;;;4980248;28;20465;-83
2022/07/27 01:48:45;;;;;;;12.20;1.87;;;14.20;53.50;;;;;;4999288;28;20927;-82
2022/07/27 01:51:11;;;;;;;5.83;2.00;;;14.00;53.80;;;;;;4999881;28;20477;-82
2022/07/27 01:53:38;;;;;;;5.80;1.97;;;13.90;55.40;;;;;;4981010;28;20482;-83
2022/07/27 01:56:10;;;;;;;4.37;1.63;;;13.80;56.10;;;;;;4979190;28;20455;-82
2022/07/27 01:58:37;;;;;;;5.30;1.93;;;13.60;56.00;;;;;;4996740;28;20474;-83
2022/07/27 02:01:05;;;;;;;6.87;2.17;;;13.50;57.40;;;;;;4998713;28;20456;-82
2022/07/27 02:03:32;;;;;;;4.97;2.00;;;13.50;58.70;;;;;;4982502;28;20551;-82
2022/07/27 02:05:59;;;;;;;6.20;1.97;;;13.30;60.00;;;;;;4979650;28;20455;-82
2022/07/27 02:08:26;;;;;;;9.57;3.30;;;13.10;61.00;;;;;;4994669;28;20955;-82
2022/07/27 02:13:38;;;;;;;8.17;6.10;;;13.00;63.70;;;;;;4981076;28;20578;-83
2022/07/27 02:16:05;;;;;;;8.77;6.73;;;12.80;64.10;;;;;;4979299;28;20461;-83
2022/07/27 02:18:32;;;;;;;11.20;10.27;;;12.60;65.40;;;;;;4980600;28;20521;-82
2022/07/27 02:20:59;;;;;;;13.23;11.93;;;12.50;66.70;;;;;;4982080;28;20454;-82
2022/07/27 02:23:26;;;;;;;28.50;27.20;;;12.30;67.60;;;;;;4998617;28;20510;-83
2022/07/27 02:25:53;;;;;;;46.00;44.20;;;12.30;69.60;;;;;;4996633;28;20464;-81
2022/07/27 02:28:19;;;;;;;44.97;42.77;;;12.30;70.50;;;;;;4979050;28;20462;-82
2022/07/27 02:30:47;;;;;;;47.07;44.67;;;12.20;70.60;;;;;;4979456;28;20466;-82
2022/07/27 02:33:15;;;;;;;56.23;53.53;;;12.00;70.90;;;;;;4978628;28;20483;-83
2022/07/27 02:35:42;;;;;;;76.03;73.13;;;11.90;71.30;;;;;;4978884;28;20462;-82
2022/07/27 02:38:09;;;;;;;85.47;82.20;;;12.00;72.40;;;;;;4978993;28;20479;-81
2022/07/27 02:40:36;;;;;;;100.30;96.47;;;11.90;73.60;;;;;;4979011;28;20853;-83
2022/07/27 02:43:02;;;;;;;113.07;108.63;;;11.80;74.20;;;;;;4995569;28;20478;-82
2022/07/27 02:45:29;;;;;;;120.23;115.80;;;11.80;74.60;;;;;;4998190;28;20458;-81
2022/07/27 02:47:57;;;;;;;124.83;120.33;;;11.80;75.80;;;;;;4982684;28;20466;-82
2022/07/27 02:50:24;;;;;;;141.97;136.70;;;11.60;76.40;;;;;;4978110;28;20466;-81
2022/07/27 02:52:51;;;;;;;144.03;138.53;;;11.60;77.30;;;;;;4978500;28;20481;-82
2022/07/27 02:55:18;;;;;;;150.40;144.73;;;11.50;78.30;;;;;;4978478;28;20461;-82
2022/07/27 02:57:44;;;;;;;165.67;158.83;;;11.50;78.30;;;;;;4991165;28;20484;-83
2022/07/27 03:00:14;;;;;;;164.17;157.77;;;11.50;80.60;;;;;;4997793;28;20461;-84
2022/07/27 03:02:41;;;;;;;169.67;162.90;;;11.50;80.80;;;;;;4996331;28;20486;-80
2022/07/27 03:05:11;;;;;;;168.47;161.43;;;11.50;82.70;;;;;;4988317;28;20454;-79
2022/07/27 03:07:38;;;;;;;200.57;191.77;;;11.20;83.00;;;;;;4998269;28;20878;-80
2022/07/27 03:10:05;;;;;;;216.53;207.57;;;11.30;85.80;;;;;;4992239;28;20446;-81
2022/07/27 03:12:32;;;;;;;231.80;222.00;;;11.30;87.20;;;;;;4988184;28;20505;-80
2022/07/27 03:14:59;;;;;;;270.20;258.83;;;11.30;88.60;;;;;;4985730;28;20462;-80
2022/07/27 03:17:26;;;;;;;233.83;223.80;;;11.20;89.80;;;;;;4988863;28;20447;-80
2022/07/27 03:19:52;;;;;;;263.30;252.37;;;11.20;89.90;;;;;;4998225;28;20470;-82
2022/07/27 03:22:21;;;;;;;246.50;235.13;;;11.20;90.60;;;;;;5006001;28;20501;-82
2022/07/27 03:24:47;;;;;;;226.67;216.43;;;11.10;91.40;;;;;;4993553;28;20450;-81
2022/07/27 03:27:14;;;;;;;234.97;224.47;;;11.10;91.40;;;;;;5010410;28;20458;-81
2022/07/27 03:29:41;;;;;;;202.40;192.87;;;10.90;92.30;;;;;;5010227;28;20450;-82
2022/07/27 03:32:08;;;;;;;263.17;251.10;;;10.90;92.50;;;;;;5010144;28;20486;-81
2022/07/27 03:34:34;;;;;;;282.00;269.43;;;11.10;94.30;;;;;;5009228;28;20447;-80
2022/07/27 03:37:01;;;;;;;311.10;297.50;;;10.90;94.90;;;;;;5009040;28;20458;-82
2022/07/27 03:39:29;;;;;;;341.07;325.73;;;10.90;95.20;;;;;;4993828;28;20477;-81
2022/07/27 03:41:56;;;;;;;361.63;345.53;;;11.00;96.00;;;;;;4992994;28;20481;-81
2022/07/27 03:44:23;;;;;;;353.53;338.47;;;10.80;96.20;;;;;;4988038;28;20459;-80
2022/07/27 03:46:49;;;;;;;365.47;349.47;;;10.90;95.80;;;;;;4999678;28;20457;-81
2022/07/27 03:49:16;;;;;;;363.30;347.80;;;11.00;96.00;;;;;;5005966;28;20827;-81
2022/07/27 03:51:44;;;;;;;372.80;356.80;;;10.80;96.10;;;;;;4987657;28;20483;-80
2022/07/27 03:54:11;;;;;;;365.67;349.77;;;10.90;96.10;;;;;;4988425;28;20968;-80
2022/07/27 03:56:39;;;;;;;381.27;365.03;;;10.90;96.20;;;;;;4992452;28;20824;-80
2022/07/27 03:59:05;;;;;;;374.17;357.87;;;10.90;96.30;;;;;;5007531;28;20474;-79
2022/07/27 04:01:32;;;;;;;356.20;340.73;;;10.80;96.70;;;;;;4993515;28;20461;-80
2022/07/27 04:03:59;;;;;;;355.77;340.57;;;11.00;96.40;;;;;;4987658;28;20482;-80
2022/07/27 04:06:26;;;;;;;384.63;368.17;;;10.70;96.50;;;;;;4994982;28;20459;-81
2022/07/27 04:08:52;;;;;;;357.53;342.03;;;10.80;97.60;;;;;;4996755;28;20452;-78
2022/07/27 04:11:19;;;;;;;371.43;353.40;;;10.80;96.50;;;;;;4984424;28;20451;-79
2022/07/27 04:13:50;;;;;;;350.70;335.30;;;10.80;97.00;;;;;;4996739;28;21029;-79
2022/07/27 04:16:17;;;;;;;388.13;371.33;;;10.90;96.80;;;;;;4991070;28;20446;-79
2022/07/27 04:18:44;;;;;;;368.90;352.77;;;10.80;96.90;;;;;;4978727;28;20930;-79
2022/07/27 04:21:10;;;;;;;373.00;355.93;;;10.90;96.80;;;;;;4977822;28;20447;-79
2022/07/27 04:23:37;;;;;;;365.60;349.90;;;10.90;97.00;;;;;;4988481;28;20480;-79
2022/07/27 04:26:13;;;;;;;306.17;292.77;;;10.80;96.60;;;;;;4987865;28;20466;-79
2022/07/27 04:28:41;;;;;;;346.00;331.23;;;10.90;95.50;;;;;;4993463;28;20450;-80
2022/07/27 04:31:09;;;;;;;344.60;330.47;;;10.90;95.90;;;;;;5003252;28;20966;-79
2022/07/27 04:33:35;;;;;;;327.20;313.60;;;10.80;95.90;;;;;;4995725;28;20835;-80
2022/07/27 04:36:02;;;;;;;387.30;371.20;;;10.80;95.60;;;;;;4994673;28;20486;-80
2022/07/27 04:38:29;;;;;;;427.93;409.57;;;10.90;96.30;;;;;;5006339;28;20478;-79
2022/07/27 04:40:55;;;;;;;473.30;452.60;;;10.90;96.70;;;;;;4989347;28;20982;-79
2022/07/27 04:43:22;;;;;;;476.77;456.10;;;10.80;97.30;;;;;;4988866;28;20475;-80
2022/07/27 04:45:49;;;;;;;548.03;523.50;;;11.10;97.70;;;;;;4995264;28;20460;-80
2022/07/27 04:48:17;;;;;;;548.87;523.83;;;11.10;98.80;;;;;;5010252;28;20462;-80
2022/07/27 04:50:45;;;;;;;560.23;534.33;;;11.20;99.20;;;;;;5009926;28;20525;-80
2022/07/27 04:53:14;;;;;;;597.43;568.67;;;11.40;99.30;;;;;;5005342;28;20475;-79
2022/07/27 04:55:42;;;;;;;559.73;533.93;;;11.40;99.70;;;;;;4997254;28;20453;-79
2022/07/27 04:58:09;;;;;;;527.93;503.27;;;11.40;99.20;;;;;;5006518;28;20469;-80
2022/07/27 05:00:36;;;;;;;504.13;480.87;;;11.50;99.00;;;;;;4990565;28;20455;-80
2022/07/27 05:03:04;;;;;;;511.83;488.00;;;11.60;99.00;;;;;;4988770;28;20470;-79
2022/07/27 05:05:32;;;;;;;468.37;447.27;;;11.70;98.90;;;;;;4981468;28;20952;-82
2022/07/27 05:07:59;;;;;;;454.93;434.47;;;11.90;99.30;;;;;;4992278;28;20457;-81
2022/07/27 05:10:26;;;;;;;466.20;445.30;;;12.00;98.60;;;;;;4991709;28;20447;-81
2022/07/27 05:12:53;;;;;;;491.17;468.60;;;11.90;98.40;;;;;;4981979;28;20493;-81
2022/07/27 05:15:20;;;;;;;414.97;396.77;;;12.00;98.50;;;;;;4989132;28;20446;-81
2022/07/27 05:17:47;;;;;;;331.50;316.40;;;12.20;98.50;;;;;;4987333;28;20451;-83
2022/07/27 05:20:15;;;;;;;284.10;270.93;;;12.20;97.30;;;;;;4987325;28;20481;-82
2022/07/27 05:22:43;;;;;;;261.40;249.93;;;12.40;96.50;;;;;;5000294;28;20873;-83
2022/07/27 05:25:10;;;;;;;265.80;253.60;;;12.50;96.20;;;;;;5003405;28;20446;-80
2022/07/27 05:27:37;;;;;;;234.40;223.97;;;12.60;95.70;;;;;;4996596;28;20458;-79
2022/07/27 05:30:05;;;;;;;236.87;226.50;;;12.70;94.50;;;;;;5000078;28;20935;-79
2022/07/27 05:32:31;;;;;;;182.00;174.00;;;12.70;94.20;;;;;;4998465;28;20476;-78
2022/07/27 05:34:58;;;;;;;138.23;132.13;;;12.90;93.40;;;;;;4987110;28;20451;-79
2022/07/27 05:37:25;;;;;;;90.70;86.70;;;13.20;92.60;;;;;;4988346;28;20456;-79
2022/07/27 05:39:53;;;;;;;22.23;20.70;;;13.50;91.40;;;;;;4984384;28;20474;-79
2022/07/27 05:42:19;;;;;;;9.83;7.70;;;14.00;88.30;;;;;;4998050;28;20485;-79
2022/07/27 05:44:46;;;;;;;8.23;4.20;;;14.30;81.00;;;;;;4997118;28;20450;-79
2022/07/27 05:47:14;;;;;;;8.53;4.23;;;14.70;74.50;;;;;;4998045;28;20463;-80
2022/07/27 05:49:40;;;;;;;6.97;3.77;;;15.00;71.20;;;;;;4999776;28;20458;-80
2022/07/27 05:52:07;;;;;;;7.80;4.13;;;15.10;68.20;;;;;;4998669;28;20477;-78
2022/07/27 05:54:34;;;;;;;6.53;3.33;;;15.50;67.30;;;;;;4990784;28;20458;-80
2022/07/27 05:57:02;;;;;;;10.73;4.70;;;15.60;66.10;;;;;;4982392;28;20457;-81
2022/07/27 05:59:31;;;;;;;6.70;3.60;;;16.00;67.30;;;;;;4992654;28;20481;-82
2022/07/27 06:01:58;;;;;;;9.03;3.63;;;16.20;62.80;;;;;;4998215;28;20529;-82
2022/07/27 06:04:26;;;;;;;7.07;3.10;;;16.20;59.70;;;;;;5004187;28;20450;-80
2022/07/27 06:09:46;;;;;;;6.97;3.00;;;16.60;58.60;;;;;;4993068;28;20442;-81
2022/07/27 06:12:19;;;;;;;8.53;4.10;;;16.60;58.00;;;;;;4992242;28;20561;-83
2022/07/27 06:14:46;;;;;;;11.07;3.97;;;16.60;55.20;;;;;;4997547;28;20462;-82
2022/07/27 06:17:20;;;;;;;10.50;3.77;;;16.80;53.60;;;;;;4992111;28;20918;-80
2022/07/27 06:19:54;;;;;;;10.73;3.90;;;16.80;56.10;;;;;;4980706;28;20523;-79
2022/07/27 06:22:29;;;;;;;9.33;3.50;;;16.80;54.50;;;;;;4994650;28;20537;-80
2022/07/27 06:24:56;;;;;;;7.10;3.10;;;17.10;56.10;;;;;;4990423;28;20456;-83
2022/07/27 06:27:26;;;;;;;10.10;3.87;;;17.10;52.90;;;;;;4999821;28;20881;-80
2022/07/27 06:29:59;;;;;;;10.63;3.53;;;17.10;52.80;;;;;;4988347;28;20457;-81
2022/07/27 06:32:30;;;;;;;7.80;3.30;;;16.90;54.20;;;;;;5005499;28;20483;-81
2022/07/27 06:35:00;;;;;;;8.73;3.63;;;17.10;52.40;;;;;;4998046;28;20480;-81
2022/07/27 06:37:30;;;;;;;12.17;3.53;;;17.00;53.20;;;;;;4978884;28;20465;-82
2022/07/27 06:39:58;;;;;;;7.00;3.40;;;17.00;53.10;;;;;;4989843;28;20544;-79
2022/07/27 06:42:26;;;;;;;8.67;3.17;;;17.10;51.30;;;;;;4999570;28;20987;-80
2022/07/27 06:44:53;;;;;;;8.67;3.23;;;17.30;52.30;;;;;;4995665;28;21040;-80
2022/07/27 06:47:21;;;;;;;12.33;3.80;;;17.30;50.70;;;;;;4998579;28;20454;-80
2022/07/27 06:49:48;;;;;;;7.67;3.27;;;17.20;50.40;;;;;;4990407;28;20448;-80
2022/07/27 06:52:15;;;;;;;14.00;3.27;;;17.20;48.80;;;;;;4990574;28;20540;-82
2022/07/27 06:54:41;;;;;;;9.43;3.50;;;17.70;48.70;;;;;;4999187;28;20454;-81
2022/07/27 06:57:23;;;;;;;;;;;;;;;;;;;;;
2022/07/27 06:59:58;;;;;;;12.20;3.97;;;17.70;46.10;;;;;;4978040;28;21060;-82
2022/07/27 07:02:26;;;;;;;7.77;2.70;;;17.80;45.50;;;;;;4990739;28;20474;-84
2022/07/27 07:04:53;;;;;;;5.63;2.60;;;18.00;47.20;;;;;;4983024;28;20509;-85
2022/07/27 07:07:20;;;;;;;10.50;2.70;;;18.00;44.20;;;;;;4981344;28;20458;-82
2022/07/27 07:09:47;;;;;;;6.93;3.23;;;18.20;42.70;;;;;;4996645;28;20845;-83
2022/07/27 07:12:14;;;;;;;11.10;3.20;;;18.10;44.20;;;;;;4992436;28;20529;-84
2022/07/27 07:14:52;;;;;;;13.63;3.63;;;17.90;42.30;;;;;;4987933;28;20465;-85
2022/07/27 07:17:19;;;;;;;9.17;3.00;;;17.70;41.20;;;;;;4978533;28;20514;-81
2022/07/27 07:19:46;;;;;;;7.20;2.47;;;17.90;42.40;;;;;;4979643;28;20859;-83
2022/07/27 07:22:13;;;;;;;8.07;2.43;;;18.20;40.60;;;;;;4979451;28;20479;-82
2022/07/27 07:24:39;;;;;;;7.10;2.40;;;18.20;42.40;;;;;;4978663;28;20468;-83
2022/07/27 07:27:06;;;;;;;12.70;2.73;;;18.40;39.70;;;;;;4979146;28;20542;-83
2022/07/27 07:29:33;;;;;;;8.53;2.20;;;18.40;38.60;;;;;;4979491;28;20527;-83
2022/07/27 07:32:01;;;;;;;10.07;2.50;;;18.60;37.00;;;;;;4978993;28;20481;-82
2022/07/27 07:34:28;;;;;;;6.23;1.90;;;18.80;34.20;;;;;;4978773;28;20840;-83
2022/07/27 07:36:55;;;;;;;10.50;1.80;;;18.60;34.00;;;;;;4979487;28;20455;-83
2022/07/27 07:39:21;;;;;;;10.63;3.10;;;18.30;38.50;;;;;;4979751;28;20489;-83
2022/07/27 07:41:48;;;;;;;13.17;3.50;;;18.30;35.40;;;;;;4979421;28;20460;-82
2022/07/27 07:44:15;;;;;;;8.00;3.00;;;17.90;33.40;;;;;;4978806;28;20458;-83
2022/07/27 07:46:42;;;;;;;9.50;3.00;;;17.90;33.40;;;;;;4978961;28;20586;-82
2022/07/27 07:49:10;;;;;;;6.63;3.20;;;18.60;37.50;;;;;;4979460;28;20485;-83
2022/07/27 07:51:37;;;;;;;8.77;4.57;;;18.60;33.10;;;;;;4978851;28;20461;-83
2022/07/27 07:54:04;;;;;;;13.13;4.53;;;18.10;33.50;;;;;;4978940;28;20452;-82
2022/07/27 07:56:30;;;;;;;9.70;3.70;;;17.80;33.20;;;;;;4979135;28;20466;-82
2022/07/27 07:58:58;;;;;;;10.90;3.23;;;17.80;33.50;;;;;;4977047;28;20459;-81
2022/07/27 08:01:25;;;;;;;9.23;3.67;;;17.80;35.10;;;;;;4977710;28;20533;-83
2022/07/27 08:03:52;;;;;;;12.60;4.33;;;17.90;33.60;;;;;;4978130;28;20484;-83
2022/07/27 08:06:20;;;;;;;11.10;3.60;;;17.70;34.20;;;;;;4978206;28;20460;-83
2022/07/27 08:08:46;;;;;;;7.37;2.83;;;17.80;36.20;;;;;;4977969;28;20461;-82
2022/07/27 08:11:13;;;;;;;11.13;3.90;;;17.70;33.20;;;;;;4977590;28;20452;-83
2022/07/27 08:13:40;;;;;;;8.80;3.83;;;17.60;36.20;;;;;;4978081;28;21000;-83
2022/07/27 08:16:07;;;;;;;8.47;3.33;;;18.60;34.00;;;;;;4978598;28;20463;-84
2022/07/27 08:18:33;;;;;;;8.93;3.60;;;18.50;29.60;;;;;;4977696;28;20450;-83
2022/07/27 08:21:00;;;;;;;14.77;4.73;;;18.10;31.40;;;;;;4977361;28;20857;-83
2022/07/27 08:23:30;;;;;;;7.20;3.80;;;18.50;33.90;;;;;;4977889;28;20471;-83
2022/07/27 08:25:57;;;;;;;7.13;3.67;;;19.00;29.00;;;;;;4977289;28;20661;-83
2022/07/27 08:28:24;;;;;;;5.73;2.30;;;19.00;26.90;;;;;;4978470;28;20489;-83
2022/07/27 08:30:50;;;;;;;15.93;3.03;;;18.90;29.60;;;;;;4978100;28;20986;-84
2022/07/27 08:33:18;;;;;;;11.77;4.93;;;19.10;27.00;;;;;;4977850;28;20479;-83
2022/07/27 08:35:46;;;;;;;8.73;4.03;;;19.40;26.60;;;;;;4978270;28;20459;-82
2022/07/27 08:38:12;;;;;;;11.03;4.97;;;20.00;26.10;;;;;;4977933;28;20457;-83
2022/07/27 08:40:41;;;;;;;8.53;4.57;;;20.30;25.70;;;;;;4978131;28;20483;-83
2022/07/27 08:43:09;;;;;;;7.37;3.53;;;20.70;24.00;;;;;;4978512;28;20576;-83
2022/07/27 08:45:37;;;;;;;8.20;3.83;;;21.00;23.20;;;;;;4978285;28;20454;-84
2022/07/27 08:48:04;;;;;;;8.13;4.23;;;21.70;20.90;;;;;;4978414;28;20469;-83
2022/07/27 08:50:33;;;;;;;9.70;3.70;;;21.70;17.90;;;;;;4977632;28;20980;-83
2022/07/27 08:53:03;;;;;;;7.33;3.40;;;22.00;21.10;;;;;;4977516;28;20481;-83
2022/07/27 08:55:32;;;;;;;8.60;2.90;;;22.30;17.10;;;;;;4977997;28;20460;-83
2022/07/27 08:58:01;;;;;;;6.80;2.50;;;22.50;16.40;;;;;;4977043;28;20465;-83
2022/07/27 09:00:29;;;;;;;7.27;3.20;;;23.60;13.60;;;;;;4977398;28;20848;-84
2022/07/27 09:02:56;;;;;;;7.10;2.67;;;22.60;11.60;;;;;;4977529;28;20510;-82
2022/07/27 09:05:23;;;;;;;9.83;1.80;;;21.40;13.70;;;;;;4977801;28;20469;-83
2022/07/27 09:07:50;;;;;;;6.20;1.70;;;20.70;16.40;;;;;;4977566;28;20461;-82
2022/07/27 09:10:31;;;;;;;7.47;2.20;;;19.90;20.70;;;;;;4977493;28;20466;-83
2022/07/27 09:12:58;;;;;;;7.77;3.50;;;19.50;20.70;;;;;;4981873;28;21001;-83
2022/07/27 09:15:26;;;;;;;11.33;4.90;;;19.00;20.40;;;;;;4986956;28;20459;-82
2022/07/27 09:17:53;;;;;;;12.77;4.90;;;19.10;23.10;;;;;;4987115;28;20463;-85
2022/07/27 09:20:21;;;;;;;8.00;5.20;;;19.30;22.50;;;;;;5000929;28;20483;-83
2022/07/27 09:22:53;;;;;;;16.67;6.47;;;19.30;21.60;;;;;;4996328;28;20473;-83
2022/07/27 09:25:34;;;;;;;8.30;6.30;;;19.70;23.70;;;;;;4982454;28;20483;-83
2022/07/27 09:28:01;;;;;;;14.00;6.87;;;19.90;21.20;;;;;;4999324;28;20544;-83
2022/07/27 09:30:29;;;;;;;9.50;6.73;;;20.10;16.90;;;;;;5000617;28;20953;-83
2022/07/27 09:33:00;;;;;;;9.10;6.17;;;21.60;15.60;;;;;;5000104;28;20482;-84
2022/07/27 09:35:34;;;;;;;10.40;6.10;;;22.10;11.50;;;;;;5000923;28;20504;-84
2022/07/27 09:38:16;;;;;;;8.90;5.73;;;22.20;12.70;;;;;;5000947;28;21020;-83
2022/07/27 09:40:44;;;;;;;8.40;5.33;;;22.40;15.50;;;;;;5000268;28;20527;-82
2022/07/27 09:43:15;;;;;;;6.90;3.27;;;21.60;14.60;;;;;;4999829;28;20468;-83
2022/07/27 09:45:46;;;;;;;5.60;3.13;;;20.80;16.10;;;;;;5000267;28;20462;-82
2022/07/27 09:48:14;;;;;;;9.03;3.43;;;20.30;15.60;;;;;;5000211;28;20968;-84
2022/07/27 09:50:45;;;;;;;6.87;2.10;;;20.30;18.50;;;;;;5000848;28;20456;-83
2022/07/27 09:53:20;;;;;;;6.83;2.10;;;20.20;15.60;;;;;;5000479;28;20523;-84
2022/07/27 09:55:57;;;;;;;6.13;2.50;;;20.20;19.90;;;;;;5000545;28;20550;-83
2022/07/27 09:58:39;;;;;;;6.00;2.63;;;19.80;15.90;;;;;;4999790;28;20461;-83
2022/07/27 10:01:14;;;;;;;7.43;2.57;;;19.70;16.70;;;;;;5000452;28;20942;-83
2022/07/27 10:03:44;;;;;;;8.60;3.57;;;19.60;17.50;;;;;;4999414;28;20853;-82
2022/07/27 10:06:16;;;;;;;13.07;3.47;;;19.90;18.70;;;;;;4999218;28;20472;-83
2022/07/27 10:08:45;;;;;;;7.00;3.60;;;20.00;18.30;;;;;;4999876;28;20461;-82
2022/07/27 10:11:16;;;;;;;7.63;3.50;;;20.40;18.60;;;;;;4999822;28;20483;-84
2022/07/27 10:13:43;;;;;;;7.20;2.73;;;21.00;17.40;;;;;;4999674;28;20513;-84
2022/07/27 10:16:16;;;;;;;7.10;2.53;;;21.50;13.30;;;;;;4999160;28;20461;-84
2022/07/27 10:18:49;;;;;;;7.33;2.80;;;22.40;13.80;;;;;;5000194;28;20459;-84
2022/07/27 10:21:17;;;;;;;11.30;2.90;;;22.80;10.30;;;;;;4999213;28;20908;-84
2022/07/27 10:23:55;;;;;;;9.25;2.83;;;22.70;8.70;;;;;;4992587;28;20466;-81
2022/07/27 10:26:32;;;;;;;8.17;2.50;;;22.50;11.80;;;;;;4993849;28;20658;-79
2022/07/27 10:29:00;;;;;;;5.50;2.43;;;22.50;11.10;;;;;;4979938;28;20454;-81
2022/07/27 10:31:30;;;;;;;5.40;2.10;;;22.70;8.40;;;;;;4979087;28;20449;-80
2022/07/27 10:34:00;;;;;;;9.83;1.90;;;21.90;12.00;;;;;;4982587;28;20473;-80
2022/07/27 10:36:56;;;;;;;5.60;1.70;;;21.40;10.80;;;;;;4985902;28;20452;-81
2022/07/27 10:39:29;;;;;;;6.40;1.53;;;22.50;13.90;;;;;;4976641;28;20484;-84
2022/07/27 10:42:18;;;;;;;4.70;1.63;;;23.30;6.90;;;;;;4978850;28;20865;-81
2022/07/27 10:45:06;;;;;;;8.13;1.50;;;23.60;4.50;;;;;;4996258;28;20885;-81
2022/07/27 10:47:37;;;;;;;4.90;1.47;;;23.20;1.00;;;;;;4995536;28;20472;-82
2022/07/27 10:50:20;;;;;;;5.17;1.10;;;23.30;2.70;;;;;;4997042;28;20962;-81
2022/07/27 10:52:49;;;;;;;4.33;1.20;;;22.60;11.40;;;;;;4988314;28;20467;-81
2022/07/27 10:55:57;;;;;;;7.73;1.60;;;21.50;12.70;;;;;;4977140;28;20992;-82
2022/07/27 10:58:57;;;;;;;6.10;1.70;;;21.10;14.40;;;;;;4994937;28;20460;-82
2022/07/27 11:01:24;;;;;;;4.60;1.50;;;20.60;16.40;;;;;;4953534;29;20505;-81
2022/07/27 11:03:52;;;;;;;5.07;1.27;;;20.80;15.90;;;;;;4935318;29;21060;-81
2022/07/27 11:06:30;;;;;;;6.57;1.67;;;20.20;16.30;;;;;;4961273;28;20469;-82
2022/07/27 11:08:59;;;;;;;5.80;1.73;;;20.60;15.10;;;;;;4995917;28;20455;-81
2022/07/27 11:11:27;;;;;;;5.07;1.60;;;21.10;16.40;;;;;;4981922;28;20545;-81
2022/07/27 11:13:57;;;;;;;5.70;1.40;;;20.80;15.20;;;;;;4979470;28;20486;-82
2022/07/27 11:16:25;;;;;;;4.20;0.90;;;20.70;14.60;;;;;;4994521;28;20503;-83
2022/07/27 11:18:56;;;;;;;4.73;1.30;;;21.20;12.00;;;;;;4999925;28;20514;-83
2022/07/27 11:21:25;;;;;;;4.70;1.30;;;22.00;10.10;;;;;;4985365;28;20480;-83
2022/07/27 11:23:54;;;;;;;6.00;1.33;;;22.50;7.90;;;;;;4979873;28;21015;-83
2022/07/27 11:26:23;;;;;;;7.00;1.30;;;23.20;1.00;;;;;;4981330;28;20458;-83
2022/07/27 11:28:51;;;;;;;4.87;0.90;;;23.60;1.00;;;;;;4981783;28;20455;-83
2022/07/27 11:31:18;;;;;;;6.60;1.20;;;24.70;1.00;;;;;;4993902;28;20958;-82
2022/07/27 11:33:57;;;;;;;5.53;1.40;;;24.90;1.00;;;;;;5002165;28;20478;-83
2022/07/27 11:36:36;;;;;;;7.30;1.57;;;25.50;1.00;;;;;;4989377;28;20463;-83
2022/07/27 11:39:04;;;;;;;8.40;1.80;;;27.20;1.00;;;;;;4979564;28;20455;-83
2022/07/27 11:41:56;;;;;;;4.77;1.43;;;27.80;1.00;;;;;;4989915;28;20993;-86
2022/07/27 11:44:24;;;;;;;6.43;1.50;;;29.50;1.00;;;;;;5000584;28;20457;-82
2022/07/27 11:46:57;;;;;;;5.50;1.47;;;28.00;1.00;;;;;;4983164;28;20457;-82
2022/07/27 11:50:14;;;;;;;4.40;1.30;;;26.40;1.00;;;;;;4979455;28;20462;-82
2022/07/27 11:53:11;;;;;;;5.30;1.37;;;24.00;1.00;;;;;;4979477;28;20505;-82
2022/07/27 11:56:26;;;;;;;4.43;1.10;;;23.20;1.00;;;;;;4978594;28;20450;-82
2022/07/27 11:59:14;;;;;;;4.23;0.97;;;22.00;1.00;;;;;;4959812;28;20460;-82
2022/07/27 12:02:09;;;;;;;5.43;1.07;;;22.70;1.00;;;;;;4995374;28;20457;-82
2022/07/27 12:11:05;;;;;;;4.80;1.13;;;23.80;1.00;;;;;;4988013;28;20438;-83
2022/07/27 12:13:58;;;;;;;5.23;1.10;;;24.90;1.00;;;;;;4999538;28;20488;-83
2022/07/27 12:16:35;;;;;;;6.03;1.00;;;25.70;1.00;;;;;;4982146;28;20541;-82
2022/07/27 12:19:37;;;;;;;5.40;0.80;;;27.40;1.00;;;;;;4983908;28;20458;-83
2022/07/27 12:22:35;;;;;;;4.53;1.03;;;28.10;1.00;;;;;;4985171;28;20481;-84
2022/07/27 12:25:32;;;;;;;5.20;1.10;;;28.10;1.00;;;;;;4998679;28;20462;-82
2022/07/27 12:28:20;;;;;;;4.47;1.00;;;25.70;1.00;;;;;;4984025;28;20537;-83
2022/07/27 12:30:49;;;;;;;6.50;2.23;;;23.80;1.00;;;;;;4979314;28;20471;-82
2022/07/27 12:33:27;;;;;;;4.30;1.17;;;22.30;1.00;;;;;;4988353;28;20880;-81
2022/07/27 12:35:55;;;;;;;6.00;1.57;;;21.80;1.00;;;;;;4977612;28;20450;-80
2022/07/27 12:38:23;;;;;;;5.60;1.07;;;22.50;1.00;;;;;;4977131;28;20462;-81
2022/07/27 12:40:54;;;;;;;6.00;1.33;;;23.40;1.00;;;;;;4989236;28;21011;-80
2022/07/27 12:43:26;;;;;;;6.17;1.00;;;23.00;1.00;;;;;;4975682;28;20569;-83
2022/07/27 12:46:19;;;;;;;5.00;1.20;;;22.90;1.00;;;;;;4985561;28;20474;-87
2022/07/27 12:48:47;;;;;;;7.67;1.23;;;23.10;1.00;;;;;;4998836;28;20460;-86
2022/07/27 12:51:13;;;;;;;5.10;1.23;;;22.80;1.00;;;;;;4986447;28;20527;-87
2022/07/27 12:53:46;;;;;;;6.43;1.30;;;23.10;1.00;;;;;;4992941;28;20995;-87
2022/07/27 12:56:37;;;;;;;5.33;1.07;;;22.50;1.00;;;;;;4987959;28;20994;-86
2022/07/27 12:59:26;;;;;;;4.73;1.00;;;22.80;1.00;;;;;;4983575;28;21029;-85
2022/07/27 13:01:54;;;;;;;5.33;1.30;;;22.90;1.00;;;;;;4991226;28;20536;-86
2022/07/27 13:04:44;;;;;;;4.93;1.23;;;23.30;1.00;;;;;;5002157;28;20449;-86
2022/07/27 13:07:11;;;;;;;5.00;1.00;;;24.30;1.00;;;;;;4996629;28;20452;-85